sensor_id;sensor_type;location;lat;lon;timestamp;temperature;humidity
66962;HTU21D;53897;51.126;5.868;2023-09-19T00:00:58;27.47;49.90
66962;HTU21D;53897;51.126;5.868;2023-09-19T00:03:24;27.46;49.91
66962;HTU21D;53897;51.126;5.868;2023-09-19T00:05:50;27.46;49.87
66962;HTU21D;53897;51.126;5.868;2023-09-19T00:08:16;27.45;49.88
66962;HTU21D;53897;51.126;5.868;2023-09-19T00:10:43;27.44;50.04
66962;HTU21D;53897;51.126;5.868;2023-09-19T00:13:10;27.43;50.09
66962;HTU21D;53897;51.126;5.868;2023-09-19T00:15:41;27.44;50.10
66962;HTU21D;53897;51.126;5.868;2023-09-19T00:18:08;27.43;50.11
66962;HTU21D;53897;51.126;5.868;2023-09-19T00:20:38;27.42;50.08
66962;HTU21D;53897;51.126;5.868;2023-09-19T00:23:05;27.41;50.05
66962;HTU21D;53897;51.126;5.868;2023-09-19T00:25:37;27.40;50.00
66962;HTU21D;53897;51.126;5.868;2023-09-19T00:28:06;27.40;49.96
66962;HTU21D;53897;51.126;5.868;2023-09-19T00:30:36;27.38;49.85
66962;HTU21D;53897;51.126;5.868;2023-09-19T00:33:04;27.39;49.69
66962;HTU21D;53897;51.126;5.868;2023-09-19T00:35:33;27.38;49.70
66962;HTU21D;53897;51.126;5.868;2023-09-19T00:37:59;27.36;49.79
66962;HTU21D;53897;51.126;5.868;2023-09-19T00:40:24;27.37;49.73
66962;HTU21D;53897;51.126;5.868;2023-09-19T00:42:51;27.36;49.60
66962;HTU21D;53897;51.126;5.868;2023-09-19T00:45:18;27.35;49.71
66962;HTU21D;53897;51.126;5.868;2023-09-19T00:47:50;27.35;49.64
66962;HTU21D;53897;51.126;5.868;2023-09-19T00:50:22;27.34;49.75
66962;HTU21D;53897;51.126;5.868;2023-09-19T00:52:50;27.34;49.73
66962;HTU21D;53897;51.126;5.868;2023-09-19T00:55:18;27.32;49.60
66962;HTU21D;53897;51.126;5.868;2023-09-19T00:57:45;27.34;49.73
66962;HTU21D;53897;51.126;5.868;2023-09-19T01:00:12;27.31;49.68
66962;HTU21D;53897;51.126;5.868;2023-09-19T01:02:44;27.31;49.64
66962;HTU21D;53897;51.126;5.868;2023-09-19T01:05:10;27.30;49.63
66962;HTU21D;53897;51.126;5.868;2023-09-19T01:07:36;27.29;49.70
66962;HTU21D;53897;51.126;5.868;2023-09-19T01:10:08;27.29;49.67
66962;HTU21D;53897;51.126;5.868;2023-09-19T01:32:04;27.22;49.63
66962;HTU21D;53897;51.126;5.868;2023-09-19T01:34:50;27.23;49.66
66962;HTU21D;53897;51.126;5.868;2023-09-19T01:37:19;27.23;49.72
66962;HTU21D;53897;51.126;5.868;2023-09-19T01:40:00;27.21;49.69
66962;HTU21D;53897;51.126;5.868;2023-09-19T01:48:31;27.19;49.61
66962;HTU21D;53897;51.126;5.868;2023-09-19T01:53:35;27.17;49.60
66962;HTU21D;53897;51.126;5.868;2023-09-19T01:56:07;27.17;49.60
66962;HTU21D;53897;51.126;5.868;2023-09-19T01:58:41;27.17;49.60
66962;HTU21D;53897;51.126;5.868;2023-09-19T02:01:13;27.16;49.60
66962;HTU21D;53897;51.126;5.868;2023-09-19T02:03:41;27.17;49.60
66962;HTU21D;53897;51.126;5.868;2023-09-19T02:06:07;27.15;49.56
66962;HTU21D;53897;51.126;5.868;2023-09-19T02:08:37;27.14;49.51
66962;HTU21D;53897;51.126;5.868;2023-09-19T02:11:02;27.15;49.45
66962;HTU21D;53897;51.126;5.868;2023-09-19T02:13:29;27.13;49.54
66962;HTU21D;53897;51.126;5.868;2023-09-19T02:15:57;27.13;49.54
66962;HTU21D;53897;51.126;5.868;2023-09-19T02:18:23;27.12;49.49
66962;HTU21D;53897;51.126;5.868;2023-09-19T02:20:48;27.10;49.45
66962;HTU21D;53897;51.126;5.868;2023-09-19T02:23:16;27.10;49.39
66962;HTU21D;53897;51.126;5.868;2023-09-19T02:25:42;27.10;49.32
66962;HTU21D;53897;51.126;5.868;2023-09-19T02:28:09;27.10;49.26
66962;HTU21D;53897;51.126;5.868;2023-09-19T02:30:35;27.09;49.27
66962;HTU21D;53897;51.126;5.868;2023-09-19T02:33:02;27.10;49.31
66962;HTU21D;53897;51.126;5.868;2023-09-19T02:35:29;27.10;49.33
66962;HTU21D;53897;51.126;5.868;2023-09-19T02:37:58;27.08;49.27
66962;HTU21D;53897;51.126;5.868;2023-09-19T02:40:24;27.07;49.24
66962;HTU21D;53897;51.126;5.868;2023-09-19T02:42:55;27.08;49.26
66962;HTU21D;53897;51.126;5.868;2023-09-19T02:45:22;27.06;49.19
66962;HTU21D;53897;51.126;5.868;2023-09-19T02:47:49;27.05;49.16
66962;HTU21D;53897;51.126;5.868;2023-09-19T02:50:16;27.05;49.21
66962;HTU21D;53897;51.126;5.868;2023-09-19T02:52:43;27.06;49.24
66962;HTU21D;53897;51.126;5.868;2023-09-19T02:55:11;27.04;49.16
66962;HTU21D;53897;51.126;5.868;2023-09-19T02:57:38;27.04;49.16
66962;HTU21D;53897;51.126;5.868;2023-09-19T03:00:09;27.04;49.17
66962;HTU21D;53897;51.126;5.868;2023-09-19T03:02:37;27.02;49.09
66962;HTU21D;53897;51.126;5.868;2023-09-19T03:05:04;27.01;49.02
66962;HTU21D;53897;51.126;5.868;2023-09-19T03:07:30;27.00;49.08
66962;HTU21D;53897;51.126;5.868;2023-09-19T03:09:56;27.00;48.96
66962;HTU21D;53897;51.126;5.868;2023-09-19T03:12:22;27.00;48.97
66962;HTU21D;53897;51.126;5.868;2023-09-19T03:14:48;26.99;48.86
66962;HTU21D;53897;51.126;5.868;2023-09-19T03:17:13;26.98;48.82
66962;HTU21D;53897;51.126;5.868;2023-09-19T03:19:40;26.96;48.88
66962;HTU21D;53897;51.126;5.868;2023-09-19T03:22:06;26.96;48.91
66962;HTU21D;53897;51.126;5.868;2023-09-19T03:24:33;26.96;48.94
66962;HTU21D;53897;51.126;5.868;2023-09-19T03:27:02;26.95;48.85
66962;HTU21D;53897;51.126;5.868;2023-09-19T03:29:28;26.95;48.81
66962;HTU21D;53897;51.126;5.868;2023-09-19T03:31:54;26.94;48.75
66962;HTU21D;53897;51.126;5.868;2023-09-19T03:34:20;26.93;48.78
66962;HTU21D;53897;51.126;5.868;2023-09-19T03:36:46;26.93;48.82
66962;HTU21D;53897;51.126;5.868;2023-09-19T03:39:12;26.91;48.78
66962;HTU21D;53897;51.126;5.868;2023-09-19T03:41:40;26.92;48.76
66962;HTU21D;53897;51.126;5.868;2023-09-19T03:44:06;26.92;48.71
66962;HTU21D;53897;51.126;5.868;2023-09-19T03:46:32;26.90;48.63
66962;HTU21D;53897;51.126;5.868;2023-09-19T03:48:59;26.90;48.69
66962;HTU21D;53897;51.126;5.868;2023-09-19T03:51:24;26.89;48.78
66962;HTU21D;53897;51.126;5.868;2023-09-19T03:53:50;26.89;48.49
66962;HTU21D;53897;51.126;5.868;2023-09-19T03:56:16;26.86;48.30
66962;HTU21D;53897;51.126;5.868;2023-09-19T03:58:42;26.85;48.34
66962;HTU21D;53897;51.126;5.868;2023-09-19T04:01:07;26.86;48.39
66962;HTU21D;53897;51.126;5.868;2023-09-19T04:03:33;26.86;48.34
66962;HTU21D;53897;51.126;5.868;2023-09-19T04:06:13;26.86;48.24
66962;HTU21D;53897;51.126;5.868;2023-09-19T04:08:39;26.85;48.23
66962;HTU21D;53897;51.126;5.868;2023-09-19T04:11:05;26.84;48.25
66962;HTU21D;53897;51.126;5.868;2023-09-19T04:13:31;26.83;48.29
66962;HTU21D;53897;51.126;5.868;2023-09-19T04:15:56;26.83;48.30
66962;HTU21D;53897;51.126;5.868;2023-09-19T04:18:23;26.84;48.29
66962;HTU21D;53897;51.126;5.868;2023-09-19T04:20:53;26.84;48.28
66962;HTU21D;53897;51.126;5.868;2023-09-19T04:23:19;26.83;48.23
66962;HTU21D;53897;51.126;5.868;2023-09-19T04:25:47;26.82;48.29
66962;HTU21D;53897;51.126;5.868;2023-09-19T04:28:15;26.79;48.31
66962;HTU21D;53897;51.126;5.868;2023-09-19T04:30:41;26.78;48.37
66962;HTU21D;53897;51.126;5.868;2023-09-19T04:33:07;26.78;48.40
66962;HTU21D;53897;51.126;5.868;2023-09-19T04:35:34;26.75;48.43
66962;HTU21D;53897;51.126;5.868;2023-09-19T04:38:00;26.75;48.44
66962;HTU21D;53897;51.126;5.868;2023-09-19T04:40:26;26.72;48.46
66962;HTU21D;53897;51.126;5.868;2023-09-19T04:42:58;26.71;48.47
66962;HTU21D;53897;51.126;5.868;2023-09-19T04:45:27;26.70;48.50
66962;HTU21D;53897;51.126;5.868;2023-09-19T04:47:54;26.70;48.51
66962;HTU21D;53897;51.126;5.868;2023-09-19T04:50:20;26.70;48.48
66962;HTU21D;53897;51.126;5.868;2023-09-19T04:52:53;26.68;48.49
66962;HTU21D;53897;51.126;5.868;2023-09-19T04:55:19;26.68;48.48
66962;HTU21D;53897;51.126;5.868;2023-09-19T04:57:50;26.68;48.52
66962;HTU21D;53897;51.126;5.868;2023-09-19T05:00:18;26.68;48.46
66962;HTU21D;53897;51.126;5.868;2023-09-19T05:02:51;26.66;48.45
66962;HTU21D;53897;51.126;5.868;2023-09-19T05:05:18;26.64;48.48
66962;HTU21D;53897;51.126;5.868;2023-09-19T05:07:45;26.63;48.48
66962;HTU21D;53897;51.126;5.868;2023-09-19T05:10:12;26.61;48.50
66962;HTU21D;53897;51.126;5.868;2023-09-19T05:12:38;26.60;48.50
66962;HTU21D;53897;51.126;5.868;2023-09-19T05:15:08;26.58;48.51
66962;HTU21D;53897;51.126;5.868;2023-09-19T05:17:34;26.60;48.54
66962;HTU21D;53897;51.126;5.868;2023-09-19T05:20:01;26.58;48.50
66962;HTU21D;53897;51.126;5.868;2023-09-19T05:22:43;26.57;48.49
66962;HTU21D;53897;51.126;5.868;2023-09-19T05:25:12;26.56;48.47
66962;HTU21D;53897;51.126;5.868;2023-09-19T05:27:44;26.54;48.53
66962;HTU21D;53897;51.126;5.868;2023-09-19T05:30:10;26.54;48.56
66962;HTU21D;53897;51.126;5.868;2023-09-19T05:32:36;26.55;48.55
66962;HTU21D;53897;51.126;5.868;2023-09-19T05:35:02;26.56;48.53
66962;HTU21D;53897;51.126;5.868;2023-09-19T05:37:28;26.58;48.58
66962;HTU21D;53897;51.126;5.868;2023-09-19T05:39:55;26.60;48.59
66962;HTU21D;53897;51.126;5.868;2023-09-19T05:42:21;26.62;48.36
66962;HTU21D;53897;51.126;5.868;2023-09-19T05:44:46;26.63;48.08
66962;HTU21D;53897;51.126;5.868;2023-09-19T05:47:12;26.64;47.88
66962;HTU21D;53897;51.126;5.868;2023-09-19T05:49:38;26.66;47.68
66962;HTU21D;53897;51.126;5.868;2023-09-19T05:52:05;26.65;47.72
66962;HTU21D;53897;51.126;5.868;2023-09-19T05:54:32;26.65;47.67
66962;HTU21D;53897;51.126;5.868;2023-09-19T05:57:02;26.66;47.49
66962;HTU21D;53897;51.126;5.868;2023-09-19T05:59:28;26.65;47.31
66962;HTU21D;53897;51.126;5.868;2023-09-19T06:01:54;26.66;47.22
66962;HTU21D;53897;51.126;5.868;2023-09-19T06:04:19;26.66;47.08
66962;HTU21D;53897;51.126;5.868;2023-09-19T06:06:45;26.66;46.90
66962;HTU21D;53897;51.126;5.868;2023-09-19T06:09:12;26.66;46.80
66962;HTU21D;53897;51.126;5.868;2023-09-19T06:11:38;26.65;46.67
66962;HTU21D;53897;51.126;5.868;2023-09-19T06:14:03;26.66;46.60
66962;HTU21D;53897;51.126;5.868;2023-09-19T06:16:30;26.65;46.49
66962;HTU21D;53897;51.126;5.868;2023-09-19T06:18:58;26.64;46.42
66962;HTU21D;53897;51.126;5.868;2023-09-19T06:21:27;26.63;46.30
66962;HTU21D;53897;51.126;5.868;2023-09-19T06:23:53;26.64;46.25
66962;HTU21D;53897;51.126;5.868;2023-09-19T06:26:19;26.63;46.12
66962;HTU21D;53897;51.126;5.868;2023-09-19T06:28:45;26.61;46.04
66962;HTU21D;53897;51.126;5.868;2023-09-19T06:31:12;26.61;45.96
66962;HTU21D;53897;51.126;5.868;2023-09-19T06:33:38;26.58;45.92
66962;HTU21D;53897;51.126;5.868;2023-09-19T06:36:06;26.57;45.88
66962;HTU21D;53897;51.126;5.868;2023-09-19T06:38:32;26.57;45.85
66962;HTU21D;53897;51.126;5.868;2023-09-19T06:41:00;26.56;45.80
66962;HTU21D;53897;51.126;5.868;2023-09-19T06:43:34;26.55;45.80
66962;HTU21D;53897;51.126;5.868;2023-09-19T06:46:03;26.55;45.78
66962;HTU21D;53897;51.126;5.868;2023-09-19T06:48:29;26.54;45.77
66962;HTU21D;53897;51.126;5.868;2023-09-19T06:50:56;26.54;45.57
66962;HTU21D;53897;51.126;5.868;2023-09-19T06:53:24;26.52;45.41
66962;HTU21D;53897;51.126;5.868;2023-09-19T06:55:51;26.52;45.45
66962;HTU21D;53897;51.126;5.868;2023-09-19T06:58:16;26.49;45.51
66962;HTU21D;53897;51.126;5.868;2023-09-19T07:00:42;26.50;45.53
66962;HTU21D;53897;51.126;5.868;2023-09-19T07:03:10;26.50;45.61
66962;HTU21D;53897;51.126;5.868;2023-09-19T07:05:40;26.49;45.64
66962;HTU21D;53897;51.126;5.868;2023-09-19T07:08:07;26.49;45.70
66962;HTU21D;53897;51.126;5.868;2023-09-19T07:10:35;26.48;45.63
66962;HTU21D;53897;51.126;5.868;2023-09-19T07:13:03;26.47;45.61
66962;HTU21D;53897;51.126;5.868;2023-09-19T07:15:31;26.47;45.65
66962;HTU21D;53897;51.126;5.868;2023-09-19T07:17:58;26.46;45.78
66962;HTU21D;53897;51.126;5.868;2023-09-19T07:20:26;26.47;45.90
66962;HTU21D;53897;51.126;5.868;2023-09-19T07:22:53;26.46;45.85
66962;HTU21D;53897;51.126;5.868;2023-09-19T07:25:20;26.46;45.73
66962;HTU21D;53897;51.126;5.868;2023-09-19T07:27:46;26.46;45.68
66962;HTU21D;53897;51.126;5.868;2023-09-19T07:30:13;26.45;45.66
66962;HTU21D;53897;51.126;5.868;2023-09-19T07:32:38;26.45;45.63
66962;HTU21D;53897;51.126;5.868;2023-09-19T07:35:06;26.46;45.57
66962;HTU21D;53897;51.126;5.868;2023-09-19T07:37:32;26.43;45.62
66962;HTU21D;53897;51.126;5.868;2023-09-19T07:40:05;26.41;45.92
66962;HTU21D;53897;51.126;5.868;2023-09-19T07:42:37;26.37;46.15
66962;HTU21D;53897;51.126;5.868;2023-09-19T07:45:09;26.33;46.32
66962;HTU21D;53897;51.126;5.868;2023-09-19T07:47:35;26.31;46.29
66962;HTU21D;53897;51.126;5.868;2023-09-19T07:50:02;26.32;46.12
66962;HTU21D;53897;51.126;5.868;2023-09-19T07:52:28;26.33;45.95
66962;HTU21D;53897;51.126;5.868;2023-09-19T07:54:54;26.36;45.80
66962;HTU21D;53897;51.126;5.868;2023-09-19T07:57:20;26.36;45.64
66962;HTU21D;53897;51.126;5.868;2023-09-19T07:59:46;26.35;45.58
66962;HTU21D;53897;51.126;5.868;2023-09-19T08:02:12;26.36;45.65
66962;HTU21D;53897;51.126;5.868;2023-09-19T08:04:44;26.37;45.57
66962;HTU21D;53897;51.126;5.868;2023-09-19T08:07:14;26.38;45.51
66962;HTU21D;53897;51.126;5.868;2023-09-19T08:09:40;26.39;45.49
66962;HTU21D;53897;51.126;5.868;2023-09-19T08:12:07;26.40;45.48
66962;HTU21D;53897;51.126;5.868;2023-09-19T08:14:36;26.40;45.42
66962;HTU21D;53897;51.126;5.868;2023-09-19T08:17:03;26.37;45.68
66962;HTU21D;53897;51.126;5.868;2023-09-19T08:19:31;26.35;45.89
66962;HTU21D;53897;51.126;5.868;2023-09-19T08:21:58;26.34;45.74
66962;HTU21D;53897;51.126;5.868;2023-09-19T08:24:27;26.34;45.87
66962;HTU21D;53897;51.126;5.868;2023-09-19T08:26:55;26.30;46.09
66962;HTU21D;53897;51.126;5.868;2023-09-19T08:29:22;26.23;46.30
66962;HTU21D;53897;51.126;5.868;2023-09-19T08:31:57;26.21;46.50
66962;HTU21D;53897;51.126;5.868;2023-09-19T08:34:26;26.17;46.65
66962;HTU21D;53897;51.126;5.868;2023-09-19T08:36:54;26.18;46.61
66962;HTU21D;53897;51.126;5.868;2023-09-19T08:39:24;26.20;46.45
66962;HTU21D;53897;51.126;5.868;2023-09-19T08:42:00;26.22;46.18
66962;HTU21D;53897;51.126;5.868;2023-09-19T08:44:27;26.25;46.19
66962;HTU21D;53897;51.126;5.868;2023-09-19T08:47:08;26.27;46.20
66962;HTU21D;53897;51.126;5.868;2023-09-19T08:52:22;26.32;45.91
66962;HTU21D;53897;51.126;5.868;2023-09-19T08:54:58;26.28;46.12
66962;HTU21D;53897;51.126;5.868;2023-09-19T08:57:29;26.26;46.30
66962;HTU21D;53897;51.126;5.868;2023-09-19T09:00:00;26.21;46.43
66962;HTU21D;53897;51.126;5.868;2023-09-19T09:02:27;26.21;46.53
66962;HTU21D;53897;51.126;5.868;2023-09-19T09:04:55;26.20;46.35
66962;HTU21D;53897;51.126;5.868;2023-09-19T09:07:24;26.23;46.22
66962;HTU21D;53897;51.126;5.868;2023-09-19T09:09:51;26.26;46.08
66962;HTU21D;53897;51.126;5.868;2023-09-19T09:12:17;26.30;45.90
66962;HTU21D;53897;51.126;5.868;2023-09-19T09:14:46;26.32;45.96
66962;HTU21D;53897;51.126;5.868;2023-09-19T09:17:16;26.35;45.97
66962;HTU21D;53897;51.126;5.868;2023-09-19T09:19:46;26.35;46.16
66962;HTU21D;53897;51.126;5.868;2023-09-19T09:22:13;26.34;46.31
66962;HTU21D;53897;51.126;5.868;2023-09-19T09:24:56;26.32;46.45
66962;HTU21D;53897;51.126;5.868;2023-09-19T09:27:30;26.34;46.24
66962;HTU21D;53897;51.126;5.868;2023-09-19T09:29:56;26.36;46.02
66962;HTU21D;53897;51.126;5.868;2023-09-19T09:34:54;26.39;45.79
66962;HTU21D;53897;51.126;5.868;2023-09-19T09:37:21;26.41;45.67
66962;HTU21D;53897;51.126;5.868;2023-09-19T09:40:03;26.42;45.58
66962;HTU21D;53897;51.126;5.868;2023-09-19T09:42:41;26.45;45.48
66962;HTU21D;53897;51.126;5.868;2023-09-19T09:47:44;26.46;45.34
66962;HTU21D;53897;51.126;5.868;2023-09-19T09:50:28;26.47;45.25
66962;HTU21D;53897;51.126;5.868;2023-09-19T09:53:27;26.48;45.12
66962;HTU21D;53897;51.126;5.868;2023-09-19T09:56:04;26.47;45.11
66962;HTU21D;53897;51.126;5.868;2023-09-19T09:58:49;26.49;45.09
66962;HTU21D;53897;51.126;5.868;2023-09-19T10:01:15;26.48;45.03
66962;HTU21D;53897;51.126;5.868;2023-09-19T10:03:43;26.50;45.00
66962;HTU21D;53897;51.126;5.868;2023-09-19T10:06:17;26.49;45.00
66962;HTU21D;53897;51.126;5.868;2023-09-19T10:11:27;26.49;44.87
66962;HTU21D;53897;51.126;5.868;2023-09-19T10:13:57;26.50;44.77
66962;HTU21D;53897;51.126;5.868;2023-09-19T10:16:30;26.50;44.73
66962;HTU21D;53897;51.126;5.868;2023-09-19T10:19:02;26.50;44.73
66962;HTU21D;53897;51.126;5.868;2023-09-19T10:21:28;26.50;44.79
66962;HTU21D;53897;51.126;5.868;2023-09-19T10:23:58;26.50;44.81
66962;HTU21D;53897;51.126;5.868;2023-09-19T10:26:28;26.51;44.78
66962;HTU21D;53897;51.126;5.868;2023-09-19T10:28:57;26.52;44.75
66962;HTU21D;53897;51.126;5.868;2023-09-19T10:31:28;26.51;44.70
66962;HTU21D;53897;51.126;5.868;2023-09-19T10:33:55;26.52;44.63
66962;HTU21D;53897;51.126;5.868;2023-09-19T10:36:26;26.52;44.70
66962;HTU21D;53897;51.126;5.868;2023-09-19T10:38:55;26.53;44.60
66962;HTU21D;53897;51.126;5.868;2023-09-19T10:41:25;26.53;44.55
66962;HTU21D;53897;51.126;5.868;2023-09-19T10:43:51;26.54;44.50
66962;HTU21D;53897;51.126;5.868;2023-09-19T10:46:19;26.54;44.45
66962;HTU21D;53897;51.126;5.868;2023-09-19T10:48:45;26.54;44.42
66962;HTU21D;53897;51.126;5.868;2023-09-19T10:51:21;26.55;44.40
66962;HTU21D;53897;51.126;5.868;2023-09-19T10:53:51;26.56;44.35
66962;HTU21D;53897;51.126;5.868;2023-09-19T10:56:25;26.56;44.32
66962;HTU21D;53897;51.126;5.868;2023-09-19T10:59:06;26.57;44.46
66962;HTU21D;53897;51.126;5.868;2023-09-19T11:01:43;26.56;44.39
66962;HTU21D;53897;51.126;5.868;2023-09-19T11:07:07;26.60;44.37
66962;HTU21D;53897;51.126;5.868;2023-09-19T11:09:51;26.61;44.41
66962;HTU21D;53897;51.126;5.868;2023-09-19T11:14:51;26.62;44.43
66962;HTU21D;53897;51.126;5.868;2023-09-19T11:30:52;26.67;44.44
66962;HTU21D;53897;51.126;5.868;2023-09-19T11:33:26;26.68;44.45
66962;HTU21D;53897;51.126;5.868;2023-09-19T11:36:11;26.69;44.49
66962;HTU21D;53897;51.126;5.868;2023-09-19T11:46:33;26.72;44.45
66962;HTU21D;53897;51.126;5.868;2023-09-19T11:49:06;26.73;44.39
66962;HTU21D;53897;51.126;5.868;2023-09-19T11:51:43;26.75;44.37
66962;HTU21D;53897;51.126;5.868;2023-09-19T11:54:13;26.77;44.33
66962;HTU21D;53897;51.126;5.868;2023-09-19T11:56:51;26.78;44.32
66962;HTU21D;53897;51.126;5.868;2023-09-19T11:59:25;26.79;44.34
66962;HTU21D;53897;51.126;5.868;2023-09-19T12:02:06;26.79;44.32
66962;HTU21D;53897;51.126;5.868;2023-09-19T12:04:42;26.81;44.24
66962;HTU21D;53897;51.126;5.868;2023-09-19T12:07:10;26.82;44.24
66962;HTU21D;53897;51.126;5.868;2023-09-19T12:09:42;26.83;44.26
66962;HTU21D;53897;51.126;5.868;2023-09-19T12:12:22;26.83;44.25
66962;HTU21D;53897;51.126;5.868;2023-09-19T12:14:51;26.85;44.26
66962;HTU21D;53897;51.126;5.868;2023-09-19T12:17:17;26.85;44.27
66962;HTU21D;53897;51.126;5.868;2023-09-19T12:19:52;26.86;44.27
66962;HTU21D;53897;51.126;5.868;2023-09-19T12:22:18;26.86;44.24
66962;HTU21D;53897;51.126;5.868;2023-09-19T12:24:46;26.87;44.22
66962;HTU21D;53897;51.126;5.868;2023-09-19T12:27:13;26.89;44.22
66962;HTU21D;53897;51.126;5.868;2023-09-19T12:29:44;26.90;44.23
66962;HTU21D;53897;51.126;5.868;2023-09-19T12:32:10;26.91;44.22
66962;HTU21D;53897;51.126;5.868;2023-09-19T12:34:36;26.91;44.25
66962;HTU21D;53897;51.126;5.868;2023-09-19T12:37:14;26.92;44.23
66962;HTU21D;53897;51.126;5.868;2023-09-19T12:39:49;26.93;44.23
66962;HTU21D;53897;51.126;5.868;2023-09-19T12:42:24;26.93;44.21
66962;HTU21D;53897;51.126;5.868;2023-09-19T12:44:58;26.94;44.17
66962;HTU21D;53897;51.126;5.868;2023-09-19T12:47:28;26.94;44.19
66962;HTU21D;53897;51.126;5.868;2023-09-19T12:50:12;26.96;44.17
66962;HTU21D;53897;51.126;5.868;2023-09-19T12:55:27;26.96;44.14
66962;HTU21D;53897;51.126;5.868;2023-09-19T13:00:39;26.96;44.13
66962;HTU21D;53897;51.126;5.868;2023-09-19T13:03:29;26.97;44.19
66962;HTU21D;53897;51.126;5.868;2023-09-19T13:05:59;26.97;44.19
66962;HTU21D;53897;51.126;5.868;2023-09-19T13:08:35;26.99;44.17
66962;HTU21D;53897;51.126;5.868;2023-09-19T13:11:14;26.98;44.17
66962;HTU21D;53897;51.126;5.868;2023-09-19T13:13:50;26.98;44.16
66962;HTU21D;53897;51.126;5.868;2023-09-19T13:16:21;26.99;44.27
66962;HTU21D;53897;51.126;5.868;2023-09-19T13:18:51;26.99;44.25
66962;HTU21D;53897;51.126;5.868;2023-09-19T13:21:29;27.00;44.26
66962;HTU21D;53897;51.126;5.868;2023-09-19T13:24:19;27.00;44.30
66962;HTU21D;53897;51.126;5.868;2023-09-19T13:26:45;27.01;44.35
66962;HTU21D;53897;51.126;5.868;2023-09-19T13:29:11;27.01;44.40
66962;HTU21D;53897;51.126;5.868;2023-09-19T13:31:37;27.02;44.47
66962;HTU21D;53897;51.126;5.868;2023-09-19T13:34:07;27.01;44.53
66962;HTU21D;53897;51.126;5.868;2023-09-19T13:36:33;27.02;44.57
66962;HTU21D;53897;51.126;5.868;2023-09-19T13:38:59;27.01;44.63
66962;HTU21D;53897;51.126;5.868;2023-09-19T13:41:25;27.02;44.68
66962;HTU21D;53897;51.126;5.868;2023-09-19T13:43:51;27.02;44.74
66962;HTU21D;53897;51.126;5.868;2023-09-19T13:46:18;27.04;44.80
66962;HTU21D;53897;51.126;5.868;2023-09-19T13:48:51;27.04;44.83
66962;HTU21D;53897;51.126;5.868;2023-09-19T13:51:20;27.05;44.89
66962;HTU21D;53897;51.126;5.868;2023-09-19T13:53:48;27.05;44.93
66962;HTU21D;53897;51.126;5.868;2023-09-19T13:56:16;27.05;44.99
66962;HTU21D;53897;51.126;5.868;2023-09-19T13:58:41;27.05;45.01
66962;HTU21D;53897;51.126;5.868;2023-09-19T14:01:08;27.05;45.07
66962;HTU21D;53897;51.126;5.868;2023-09-19T14:03:41;27.07;45.05
66962;HTU21D;53897;51.126;5.868;2023-09-19T14:06:12;27.07;45.07
66962;HTU21D;53897;51.126;5.868;2023-09-19T14:08:38;27.06;45.12
66962;HTU21D;53897;51.126;5.868;2023-09-19T14:11:07;27.07;45.16
66962;HTU21D;53897;51.126;5.868;2023-09-19T14:13:33;27.07;45.23
66962;HTU21D;53897;51.126;5.868;2023-09-19T14:16:05;27.06;45.27
66962;HTU21D;53897;51.126;5.868;2023-09-19T14:18:32;27.06;45.33
66962;HTU21D;53897;51.126;5.868;2023-09-19T14:20:58;27.06;45.39
66962;HTU21D;53897;51.126;5.868;2023-09-19T14:23:23;27.07;45.41
66962;HTU21D;53897;51.126;5.868;2023-09-19T14:25:52;27.06;45.45
66962;HTU21D;53897;51.126;5.868;2023-09-19T14:28:19;27.07;45.49
66962;HTU21D;53897;51.126;5.868;2023-09-19T14:30:45;27.07;45.52
66962;HTU21D;53897;51.126;5.868;2023-09-19T14:33:11;27.07;45.54
66962;HTU21D;53897;51.126;5.868;2023-09-19T14:35:37;27.06;45.60
66962;HTU21D;53897;51.126;5.868;2023-09-19T14:38:06;27.07;45.62
66962;HTU21D;53897;51.126;5.868;2023-09-19T14:40:31;27.06;45.65
66962;HTU21D;53897;51.126;5.868;2023-09-19T14:42:57;27.07;45.66
66962;HTU21D;53897;51.126;5.868;2023-09-19T14:45:23;27.07;45.68
66962;HTU21D;53897;51.126;5.868;2023-09-19T14:47:51;27.07;45.68
66962;HTU21D;53897;51.126;5.868;2023-09-19T14:50:20;27.07;45.70
66962;HTU21D;53897;51.126;5.868;2023-09-19T14:52:46;27.06;45.73
66962;HTU21D;53897;51.126;5.868;2023-09-19T14:55:11;27.08;45.75
66962;HTU21D;53897;51.126;5.868;2023-09-19T14:57:42;27.06;45.82
66962;HTU21D;53897;51.126;5.868;2023-09-19T15:00:11;27.07;45.80
66962;HTU21D;53897;51.126;5.868;2023-09-19T15:02:38;27.08;45.82
66962;HTU21D;53897;51.126;5.868;2023-09-19T15:05:06;27.06;45.82
66962;HTU21D;53897;51.126;5.868;2023-09-19T15:07:35;27.08;45.86
66962;HTU21D;53897;51.126;5.868;2023-09-19T15:10:03;27.07;45.85
66962;HTU21D;53897;51.126;5.868;2023-09-19T15:12:33;27.07;45.86
66962;HTU21D;53897;51.126;5.868;2023-09-19T15:14:58;27.07;45.87
66962;HTU21D;53897;51.126;5.868;2023-09-19T15:17:24;27.07;45.89
66962;HTU21D;53897;51.126;5.868;2023-09-19T15:19:51;27.06;45.91
66962;HTU21D;53897;51.126;5.868;2023-09-19T15:22:16;27.07;45.90
66962;HTU21D;53897;51.126;5.868;2023-09-19T15:24:42;27.07;45.91
66962;HTU21D;53897;51.126;5.868;2023-09-19T15:27:08;27.08;45.96
66962;HTU21D;53897;51.126;5.868;2023-09-19T15:29:34;27.09;45.96
66962;HTU21D;53897;51.126;5.868;2023-09-19T15:31:59;27.08;45.99
66962;HTU21D;53897;51.126;5.868;2023-09-19T15:34:28;27.07;45.99
66962;HTU21D;53897;51.126;5.868;2023-09-19T15:36:55;27.08;46.02
66962;HTU21D;53897;51.126;5.868;2023-09-19T15:39:21;27.09;46.03
66962;HTU21D;53897;51.126;5.868;2023-09-19T15:41:48;27.08;46.04
66962;HTU21D;53897;51.126;5.868;2023-09-19T15:44:19;27.09;46.06
66962;HTU21D;53897;51.126;5.868;2023-09-19T15:46:46;27.09;46.07
66962;HTU21D;53897;51.126;5.868;2023-09-19T15:49:12;27.09;46.09
66962;HTU21D;53897;51.126;5.868;2023-09-19T15:51:38;27.08;46.11
66962;HTU21D;53897;51.126;5.868;2023-09-19T15:54:08;27.07;46.09
66962;HTU21D;53897;51.126;5.868;2023-09-19T15:56:34;27.07;46.06
66962;HTU21D;53897;51.126;5.868;2023-09-19T15:59:00;27.07;46.06
66962;HTU21D;53897;51.126;5.868;2023-09-19T16:01:26;27.08;46.05
66962;HTU21D;53897;51.126;5.868;2023-09-19T16:03:53;27.09;46.11
66962;HTU21D;53897;51.126;5.868;2023-09-19T16:06:23;27.09;46.23
66962;HTU21D;53897;51.126;5.868;2023-09-19T16:08:51;27.10;46.32
66962;HTU21D;53897;51.126;5.868;2023-09-19T16:11:18;27.10;46.38
66962;HTU21D;53897;51.126;5.868;2023-09-19T16:13:48;27.09;46.38
66962;HTU21D;53897;51.126;5.868;2023-09-19T16:16:14;27.09;46.44
66962;HTU21D;53897;51.126;5.868;2023-09-19T16:18:54;27.11;46.47
66962;HTU21D;53897;51.126;5.868;2023-09-19T16:21:24;27.11;46.52
66962;HTU21D;53897;51.126;5.868;2023-09-19T16:23:52;27.11;46.57
66962;HTU21D;53897;51.126;5.868;2023-09-19T16:26:20;27.12;46.61
66962;HTU21D;53897;51.126;5.868;2023-09-19T16:28:47;27.12;46.62
66962;HTU21D;53897;51.126;5.868;2023-09-19T16:31:15;27.12;46.64
66962;HTU21D;53897;51.126;5.868;2023-09-19T16:33:44;27.13;46.70
66962;HTU21D;53897;51.126;5.868;2023-09-19T16:36:15;27.13;46.73